Time;durP1;ratioP1;P1;durP2;ratioP2;P2;SDS_P1;SDS_P2;PMS_P1;PMS_P2;Temp;Humidity;BMP_temperature;BMP_pressure;BME280_temperature;BME280_humidity;BME280_pressure;Samples;Min_cycle;Max_cycle;Signal;HPM_P1;HPM_P2
2022/01/10 00:00:55;;;;;;;10.40;5.37;;;;;;;;;;1997044;28;20613;-73
2022/01/10 00:01:54;;;;;;;8.70;5.82;;;;;;;;;;1996271;28;20412;-73
2022/01/10 00:02:54;;;;;;;9.30;5.80;;;;;;;;;;1996567;28;20178;-73
2022/01/10 00:03:53;;;;;;;10.88;5.78;;;;;;;;;;1997161;28;20170;-72
2022/01/10 00:04:52;;;;;;;7.77;5.00;;;;;;;;;;1997029;28;20174;-72
2022/01/10 00:05:51;;;;;;;9.33;5.27;;;;;;;;;;1996983;28;20405;-72
2022/01/10 00:06:50;;;;;;;8.13;5.20;;;;;;;;;;1997039;28;20433;-72
2022/01/10 00:07:49;;;;;;;7.90;4.63;;;;;;;;;;1997091;28;20174;-72
2022/01/10 00:08:48;;;;;;;9.20;5.23;;;;;;;;;;1996966;28;20417;-72
2022/01/10 00:09:47;;;;;;;8.63;5.67;;;;;;;;;;1996967;28;20499;-72
2022/01/10 00:10:46;;;;;;;10.40;5.57;;;;;;;;;;1996950;28;20459;-72
2022/01/10 00:11:45;;;;;;;9.18;6.07;;;;;;;;;;1996905;28;20420;-72
2022/01/10 00:12:45;;;;;;;8.57;5.13;;;;;;;;;;1996871;28;20177;-72
2022/01/10 00:13:44;;;;;;;9.40;5.00;;;;;;;;;;1997026;28;20401;-72
2022/01/10 00:14:42;;;;;;;9.17;5.50;;;;;;;;;;1996240;28;20651;-72
2022/01/10 00:15:41;;;;;;;9.20;5.00;;;;;;;;;;1996452;28;20417;-73
2022/01/10 00:16:41;;;;;;;7.43;4.20;;;;;;;;;;1997059;28;20444;-72
2022/01/10 00:17:40;;;;;;;9.82;5.07;;;;;;;;;;1996990;28;20181;-73
2022/01/10 00:18:39;;;;;;;7.57;4.40;;;;;;;;;;1996956;28;20185;-72
2022/01/10 00:19:38;;;;;;;12.70;5.73;;;;;;;;;;1997056;28;20404;-72
2022/01/10 00:20:37;;;;;;;8.17;5.07;;;;;;;;;;1996901;28;20405;-72
2022/01/10 00:21:36;;;;;;;7.40;5.30;;;;;;;;;;1996966;28;20424;-72
2022/01/10 00:22:35;;;;;;;10.27;6.10;;;;;;;;;;1996925;28;20174;-73
2022/01/10 00:23:35;;;;;;;9.13;5.03;;;;;;;;;;1996903;28;20401;-73
2022/01/10 00:24:34;;;;;;;6.72;4.90;;;;;;;;;;1996951;28;20173;-73
2022/01/10 00:25:33;;;;;;;8.10;4.75;;;;;;;;;;1997063;28;20522;-72
2022/01/10 00:26:31;;;;;;;9.00;5.00;;;;;;;;;;1996907;28;20198;-73
2022/01/10 00:27:30;;;;;;;9.47;5.40;;;;;;;;;;1996859;28;20429;-73
2022/01/10 00:28:29;;;;;;;7.97;4.17;;;;;;;;;;1996964;28;20535;-73
2022/01/10 00:29:28;;;;;;;11.53;6.10;;;;;;;;;;1996929;28;20762;-72
2022/01/10 00:30:27;;;;;;;7.43;4.33;;;;;;;;;;1996865;28;20401;-73
2022/01/10 00:31:26;;;;;;;14.23;5.20;;;;;;;;;;1996935;28;20496;-72
2022/01/10 00:32:25;;;;;;;7.05;4.80;;;;;;;;;;1997003;28;20416;-72
2022/01/10 00:33:24;;;;;;;6.87;5.37;;;;;;;;;;1996825;28;20204;-72
2022/01/10 00:34:24;;;;;;;7.13;4.60;;;;;;;;;;1996856;28;20488;-72
2022/01/10 00:35:23;;;;;;;13.18;5.40;;;;;;;;;;1996791;28;20763;-72
2022/01/10 00:36:22;;;;;;;11.98;5.65;;;;;;;;;;1996639;28;20204;-72
2022/01/10 00:37:21;;;;;;;8.85;5.05;;;;;;;;;;1996849;28;20170;-72
2022/01/10 00:38:20;;;;;;;7.50;5.07;;;;;;;;;;1996904;28;20267;-72
2022/01/10 00:39:20;;;;;;;8.83;4.27;;;;;;;;;;1996927;28;20457;-73
2022/01/10 00:40:19;;;;;;;9.02;4.95;;;;;;;;;;1996128;28;20421;-73
2022/01/10 00:41:18;;;;;;;7.80;5.15;;;;;;;;;;1996205;28;20172;-73
2022/01/10 00:42:17;;;;;;;11.30;5.10;;;;;;;;;;1996807;28;20198;-73
2022/01/10 00:43:19;;;;;;;9.98;5.20;;;;;;;;;;1996809;28;20869;-73
2022/01/10 00:44:25;;;;;;;8.70;5.30;;;;;;;;;;1996607;28;20162;-73
2022/01/10 00:45:26;;;;;;;7.05;4.00;;;;;;;;;;1996736;28;20554;-73
2022/01/10 00:46:25;;;;;;;9.85;4.68;;;;;;;;;;1996667;28;20200;-73
2022/01/10 00:47:24;;;;;;;9.30;5.13;;;;;;;;;;1996679;28;20173;-73
2022/01/10 00:48:23;;;;;;;7.77;5.20;;;;;;;;;;1996676;28;20401;-72
2022/01/10 00:49:22;;;;;;;9.10;4.80;;;;;;;;;;1996681;28;20887;-72
2022/01/10 00:50:21;;;;;;;9.63;5.17;;;;;;;;;;1996717;28;20559;-72
2022/01/10 00:51:20;;;;;;;7.70;5.28;;;;;;;;;;1996086;28;20417;-72
2022/01/10 00:52:19;;;;;;;10.03;5.60;;;;;;;;;;1996193;28;20245;-73
2022/01/10 00:53:18;;;;;;;9.37;4.97;;;;;;;;;;1996692;28;20810;-71
2022/01/10 00:54:16;;;;;;;7.03;4.70;;;;;;;;;;1996547;28;20890;-71
2022/01/10 00:55:15;;;;;;;7.53;5.03;;;;;;;;;;1996852;28;20393;-71
2022/01/10 00:56:14;;;;;;;7.73;5.07;;;;;;;;;;1996624;28;20940;-71
2022/01/10 00:57:13;;;;;;;10.60;5.10;;;;;;;;;;1996654;28;20437;-71
2022/01/10 00:58:12;;;;;;;9.57;5.03;;;;;;;;;;1996016;28;20504;-71
2022/01/10 00:59:11;;;;;;;7.25;4.05;;;;;;;;;;1996157;28;20543;-71
2022/01/10 01:00:12;;;;;;;6.87;4.47;;;;;;;;;;1996631;28;20613;-72
2022/01/10 01:01:11;;;;;;;7.05;4.75;;;;;;;;;;1996484;28;20413;-72
2022/01/10 01:02:10;;;;;;;8.10;4.87;;;;;;;;;;1996701;28;20170;-72
2022/01/10 01:03:09;;;;;;;8.50;4.57;;;;;;;;;;1996672;28;20400;-71
2022/01/10 01:04:08;;;;;;;9.55;5.22;;;;;;;;;;1996658;28;20430;-71
2022/01/10 01:05:09;;;;;;;6.63;4.47;;;;;;;;;;1996621;28;20180;-71
2022/01/10 01:06:10;;;;;;;7.93;4.65;;;;;;;;;;1996631;28;20537;-72
2022/01/10 01:07:09;;;;;;;7.60;4.70;;;;;;;;;;1996614;28;20177;-72
2022/01/10 01:08:09;;;;;;;7.15;4.55;;;;;;;;;;1996642;28;20257;-72
2022/01/10 01:09:12;;;;;;;9.27;4.82;;;;;;;;;;1996614;28;20184;-71
2022/01/10 01:12:50;;;;;;;6.50;4.03;;;;;;;;;;1996699;28;20169;-71
2022/01/10 01:13:54;;;;;;;10.05;4.32;;;;;;;;;;1996867;28;20155;-71
2022/01/10 01:14:55;;;;;;;6.60;4.68;;;;;;;;;;1996698;28;20236;-71
2022/01/10 01:17:12;;;;;;;6.28;4.30;;;;;;;;;;1996742;28;20610;-71
2022/01/10 01:18:18;;;;;;;8.38;4.88;;;;;;;;;;1996882;28;20157;-71
2022/01/10 01:24:10;;;;;;;6.97;4.40;;;;;;;;;;1996686;28;20158;-71
2022/01/10 01:25:10;;;;;;;8.03;3.80;;;;;;;;;;1996628;28;20162;-72
2022/01/10 01:26:11;;;;;;;6.00;3.97;;;;;;;;;;1996536;28;20412;-71
2022/01/10 01:27:10;;;;;;;9.25;5.40;;;;;;;;;;1996601;28;20249;-73
2022/01/10 01:28:09;;;;;;;8.00;4.10;;;;;;;;;;1996588;28;20626;-72
2022/01/10 01:29:10;;;;;;;6.60;4.30;;;;;;;;;;1996604;28;20416;-72
2022/01/10 01:30:10;;;;;;;6.70;4.43;;;;;;;;;;1996707;28;20404;-71
2022/01/10 01:31:09;;;;;;;6.05;4.00;;;;;;;;;;1996543;28;20216;-72
2022/01/10 01:32:08;;;;;;;6.40;3.77;;;;;;;;;;1996662;28;20189;-71
2022/01/10 01:33:07;;;;;;;10.43;4.93;;;;;;;;;;1996661;28;20406;-72
2022/01/10 01:34:06;;;;;;;9.30;3.87;;;;;;;;;;1996662;28;20201;-72
2022/01/10 01:35:07;;;;;;;7.67;4.10;;;;;;;;;;1996569;28;20463;-72
2022/01/10 01:36:06;;;;;;;6.88;3.90;;;;;;;;;;1996370;28;20401;-72
2022/01/10 01:37:06;;;;;;;7.95;4.47;;;;;;;;;;1996610;28;20612;-71
2022/01/10 01:38:07;;;;;;;5.78;3.97;;;;;;;;;;1996633;28;20169;-71
2022/01/10 01:39:16;;;;;;;7.55;4.47;;;;;;;;;;1995824;28;20202;-72
2022/01/10 01:40:15;;;;;;;8.05;4.00;;;;;;;;;;1996157;28;20614;-72
2022/01/10 01:42:33;;;;;;;8.00;4.45;;;;;;;;;;1996555;28;20378;-71
2022/01/10 01:43:32;;;;;;;9.00;4.55;;;;;;;;;;1996612;28;20154;-72
2022/01/10 01:44:31;;;;;;;6.00;3.90;;;;;;;;;;1996712;28;20641;-72
2022/01/10 01:45:38;;;;;;;6.50;4.18;;;;;;;;;;1996764;28;20924;-71
2022/01/10 01:46:37;;;;;;;5.90;4.13;;;;;;;;;;1996452;28;20194;-71
2022/01/10 01:47:36;;;;;;;8.45;4.32;;;;;;;;;;1996577;28;20233;-71
2022/01/10 01:48:35;;;;;;;6.75;4.38;;;;;;;;;;1996550;28;20536;-71
2022/01/10 01:49:34;;;;;;;7.10;3.95;;;;;;;;;;1996700;28;20161;-72
2022/01/10 01:50:33;;;;;;;8.90;3.80;;;;;;;;;;1996527;28;20618;-72
2022/01/10 01:51:33;;;;;;;7.88;4.10;;;;;;;;;;1996666;28;20450;-72
2022/01/10 01:52:32;;;;;;;5.47;3.63;;;;;;;;;;1996668;28;20518;-72
2022/01/10 01:53:31;;;;;;;7.70;4.70;;;;;;;;;;1995930;28;20217;-72
2022/01/10 01:54:30;;;;;;;5.60;3.63;;;;;;;;;;1995734;28;20518;-72
2022/01/10 01:55:29;;;;;;;5.33;3.50;;;;;;;;;;1996662;28;20174;-72
2022/01/10 01:56:28;;;;;;;5.70;3.90;;;;;;;;;;1997279;28;20508;-73
2022/01/10 01:57:28;;;;;;;6.00;3.73;;;;;;;;;;1998151;28;20557;-72
2022/01/10 01:58:27;;;;;;;4.68;3.20;;;;;;;;;;1998048;28;20436;-71
2022/01/10 01:59:26;;;;;;;7.15;4.15;;;;;;;;;;1997999;28;20271;-71
2022/01/10 02:00:26;;;;;;;7.07;4.80;;;;;;;;;;1998477;28;20174;-73
2022/01/10 02:01:25;;;;;;;6.85;4.10;;;;;;;;;;1998784;28;20170;-71
2022/01/10 02:02:24;;;;;;;7.10;4.03;;;;;;;;;;1998092;28;20178;-71
2022/01/10 02:03:23;;;;;;;7.93;3.57;;;;;;;;;;1998218;28;20542;-71
2022/01/10 02:04:22;;;;;;;6.37;3.63;;;;;;;;;;1997956;28;20397;-71
2022/01/10 02:05:21;;;;;;;7.33;3.57;;;;;;;;;;1998063;28;20806;-71
2022/01/10 02:06:20;;;;;;;5.20;4.40;;;;;;;;;;1998102;28;20850;-72
2022/01/10 02:07:19;;;;;;;5.88;4.03;;;;;;;;;;1998273;28;20861;-72
2022/01/10 02:08:18;;;;;;;7.57;4.07;;;;;;;;;;1998009;28;20181;-71
2022/01/10 02:09:17;;;;;;;5.63;3.50;;;;;;;;;;1998517;28;20220;-71
2022/01/10 02:10:17;;;;;;;8.73;4.50;;;;;;;;;;1998654;28;20405;-73
2022/01/10 02:11:16;;;;;;;4.22;3.40;;;;;;;;;;1998129;28;20166;-71
2022/01/10 02:12:15;;;;;;;4.43;3.63;;;;;;;;;;1998176;28;20539;-71
2022/01/10 02:13:14;;;;;;;6.53;4.40;;;;;;;;;;1998052;28;20174;-71
2022/01/10 02:14:15;;;;;;;3.73;2.73;;;;;;;;;;1998702;28;20492;-72
2022/01/10 02:15:36;;;;;;;7.38;3.72;;;;;;;;;;1998412;28;20507;-72
2022/01/10 02:16:52;;;;;;;6.78;3.67;;;;;;;;;;1997737;28;20205;-72
2022/01/10 02:17:55;;;;;;;9.15;4.70;;;;;;;;;;1998107;28;20256;-72
2022/01/10 02:18:54;;;;;;;5.93;3.75;;;;;;;;;;1998092;28;20194;-72
2022/01/10 02:19:54;;;;;;;6.00;4.50;;;;;;;;;;1998185;28;20209;-71
2022/01/10 02:20:53;;;;;;;5.50;3.70;;;;;;;;;;1998627;28;20403;-71
2022/01/10 02:21:52;;;;;;;7.95;4.10;;;;;;;;;;1998118;28;20178;-71
2022/01/10 02:22:51;;;;;;;5.25;3.70;;;;;;;;;;1997448;28;20186;-72
2022/01/10 02:23:50;;;;;;;5.07;3.40;;;;;;;;;;1997641;28;20174;-72
2022/01/10 02:24:49;;;;;;;6.47;4.23;;;;;;;;;;1997885;28;20910;-71
2022/01/10 02:25:48;;;;;;;5.47;3.40;;;;;;;;;;1998136;28;20405;-72
2022/01/10 02:26:48;;;;;;;6.90;4.10;;;;;;;;;;1998942;28;20521;-71
2022/01/10 02:27:48;;;;;;;5.57;3.53;;;;;;;;;;1998061;28;20178;-71
2022/01/10 02:28:47;;;;;;;7.18;4.10;;;;;;;;;;1997906;28;20556;-71
2022/01/10 02:29:46;;;;;;;7.00;3.77;;;;;;;;;;1998430;28;20170;-71
2022/01/10 02:30:45;;;;;;;6.97;3.83;;;;;;;;;;2001373;28;20397;-71
2022/01/10 02:31:44;;;;;;;5.93;3.37;;;;;;;;;;2007081;28;20436;-71
2022/01/10 02:32:43;;;;;;;5.80;3.45;;;;;;;;;;2006942;28;20409;-71
2022/01/10 02:33:42;;;;;;;5.97;3.73;;;;;;;;;;2006823;28;20178;-71
2022/01/10 02:34:41;;;;;;;6.05;3.60;;;;;;;;;;2006953;28;20407;-71
2022/01/10 02:35:50;;;;;;;5.23;3.53;;;;;;;;;;2006738;28;20213;-72
2022/01/10 02:36:50;;;;;;;4.60;3.25;;;;;;;;;;2006785;28;20440;-71
2022/01/10 02:37:50;;;;;;;4.30;3.30;;;;;;;;;;2006798;28;20188;-71
2022/01/10 02:38:51;;;;;;;6.35;3.92;;;;;;;;;;2006832;28;20166;-71
2022/01/10 02:39:50;;;;;;;4.53;3.22;;;;;;;;;;2006933;28;20174;-71
2022/01/10 02:40:50;;;;;;;4.83;3.73;;;;;;;;;;2007181;28;20174;-71
2022/01/10 02:41:49;;;;;;;4.97;3.70;;;;;;;;;;2002701;28;20472;-72
2022/01/10 02:42:48;;;;;;;5.40;3.90;;;;;;;;;;2006243;28;20170;-72
2022/01/10 02:43:47;;;;;;;7.23;3.57;;;;;;;;;;2004343;28;20421;-73
2022/01/10 02:44:46;;;;;;;5.87;3.23;;;;;;;;;;2004010;28;20425;-73
2022/01/10 02:45:45;;;;;;;10.17;3.70;;;;;;;;;;2003560;28;20396;-73
2022/01/10 02:46:45;;;;;;;6.18;3.70;;;;;;;;;;2002954;28;20424;-72
2022/01/10 02:47:45;;;;;;;4.78;3.55;;;;;;;;;;1997940;28;20700;-72
2022/01/10 02:48:44;;;;;;;5.15;3.65;;;;;;;;;;1997714;28;20255;-73
2022/01/10 02:49:42;;;;;;;3.80;3.20;;;;;;;;;;1996963;28;20228;-72
2022/01/10 02:50:41;;;;;;;5.97;4.30;;;;;;;;;;1997612;28;20467;-73
2022/01/10 02:51:41;;;;;;;4.40;3.10;;;;;;;;;;1997221;28;20413;-72
2022/01/10 02:52:40;;;;;;;7.78;3.65;;;;;;;;;;1997203;28;20411;-72
2022/01/10 02:53:39;;;;;;;7.00;3.30;;;;;;;;;;1999810;28;20180;-72
2022/01/10 02:54:38;;;;;;;3.33;3.00;;;;;;;;;;1998460;28;20952;-72
2022/01/10 02:55:37;;;;;;;6.63;3.37;;;;;;;;;;1999365;28;20193;-72
2022/01/10 02:56:45;;;;;;;3.77;3.13;;;;;;;;;;1998795;28;20515;-72
2022/01/10 02:57:44;;;;;;;7.07;3.83;;;;;;;;;;1999073;28;20400;-72
2022/01/10 02:58:44;;;;;;;8.40;3.60;;;;;;;;;;1999937;28;20182;-72
2022/01/10 02:59:42;;;;;;;5.93;3.73;;;;;;;;;;1998140;28;20249;-72
2022/01/10 03:00:41;;;;;;;4.80;3.63;;;;;;;;;;1999054;28;20880;-72
2022/01/10 03:01:41;;;;;;;7.90;4.23;;;;;;;;;;1998123;28;20877;-71
2022/01/10 03:02:41;;;;;;;5.35;3.83;;;;;;;;;;1997617;28;20492;-72
2022/01/10 03:03:40;;;;;;;8.70;4.00;;;;;;;;;;1997627;28;20664;-72
2022/01/10 03:04:39;;;;;;;5.47;3.70;;;;;;;;;;1997550;28;20170;-72
2022/01/10 03:05:38;;;;;;;5.20;3.65;;;;;;;;;;1997649;28;20412;-72
2022/01/10 03:06:38;;;;;;;7.70;3.30;;;;;;;;;;1997627;28;20555;-72
2022/01/10 03:07:38;;;;;;;5.45;3.60;;;;;;;;;;1997744;28;20911;-72
2022/01/10 03:08:37;;;;;;;4.32;3.30;;;;;;;;;;1997737;28;20224;-72
2022/01/10 03:09:36;;;;;;;7.00;3.63;;;;;;;;;;1997034;28;20285;-72
2022/01/10 03:10:35;;;;;;;4.97;4.05;;;;;;;;;;1997025;28;20409;-72
2022/01/10 03:11:35;;;;;;;4.30;3.50;;;;;;;;;;1997841;28;20184;-72
2022/01/10 03:12:35;;;;;;;6.00;3.80;;;;;;;;;;1997682;28;20830;-72
2022/01/10 03:13:34;;;;;;;4.05;3.15;;;;;;;;;;1997782;28;20254;-72
2022/01/10 03:14:33;;;;;;;3.57;2.80;;;;;;;;;;1997624;28;20174;-71
2022/01/10 03:15:31;;;;;;;4.80;3.30;;;;;;;;;;1997565;28;20417;-71
2022/01/10 03:16:30;;;;;;;5.00;2.70;;;;;;;;;;1997485;28;20514;-72
2022/01/10 03:17:29;;;;;;;5.13;3.20;;;;;;;;;;1997989;28;20443;-72
2022/01/10 03:18:29;;;;;;;5.37;3.03;;;;;;;;;;1997826;28;20177;-72
2022/01/10 03:19:28;;;;;;;4.35;3.17;;;;;;;;;;1999638;28;20838;-72
2022/01/10 03:20:27;;;;;;;3.30;3.00;;;;;;;;;;2006156;28;20182;-72
2022/01/10 03:21:26;;;;;;;6.00;3.20;;;;;;;;;;2006171;28;20404;-72
2022/01/10 03:22:26;;;;;;;3.77;2.60;;;;;;;;;;2005613;28;20462;-71
2022/01/10 03:23:25;;;;;;;5.13;3.17;;;;;;;;;;2006151;28;20439;-71
2022/01/10 03:24:24;;;;;;;5.30;3.00;;;;;;;;;;2006248;28;20173;-72
2022/01/10 03:25:23;;;;;;;4.53;2.97;;;;;;;;;;2006366;28;20423;-71
2022/01/10 03:26:24;;;;;;;6.68;2.45;;;;;;;;;;2005841;28;20429;-72
2022/01/10 03:27:23;;;;;;;6.30;3.30;;;;;;;;;;2006368;28;20170;-72
2022/01/10 03:28:22;;;;;;;5.10;3.33;;;;;;;;;;2006892;28;20232;-71
2022/01/10 03:29:21;;;;;;;3.30;3.00;;;;;;;;;;2006162;28;20165;-72
2022/01/10 03:30:20;;;;;;;5.78;2.90;;;;;;;;;;2006057;28;20432;-71
2022/01/10 03:31:19;;;;;;;5.33;2.87;;;;;;;;;;2005925;28;20178;-72
2022/01/10 03:32:18;;;;;;;4.18;3.30;;;;;;;;;;2006151;28;20390;-71
2022/01/10 03:33:17;;;;;;;3.93;2.83;;;;;;;;;;2006546;28;20181;-71
2022/01/10 03:34:15;;;;;;;4.17;2.87;;;;;;;;;;2006230;28;20431;-71
2022/01/10 03:35:15;;;;;;;6.00;3.70;;;;;;;;;;2006403;28;20409;-72
2022/01/10 03:36:14;;;;;;;4.47;3.08;;;;;;;;;;2005872;28;20401;-72
2022/01/10 03:37:13;;;;;;;6.20;3.40;;;;;;;;;;2005180;28;20170;-72
2022/01/10 03:38:11;;;;;;;4.43;2.83;;;;;;;;;;2005037;28;20416;-71
2022/01/10 03:39:11;;;;;;;4.20;2.97;;;;;;;;;;2002140;28;20452;-72
2022/01/10 03:40:10;;;;;;;5.88;2.90;;;;;;;;;;2001425;28;20742;-72
2022/01/10 03:41:09;;;;;;;6.13;3.58;;;;;;;;;;1999166;28;20715;-72
2022/01/10 03:42:08;;;;;;;4.03;3.53;;;;;;;;;;1997837;28;20170;-72
2022/01/10 03:43:07;;;;;;;3.70;3.10;;;;;;;;;;1998006;28;20440;-72
2022/01/10 03:44:07;;;;;;;4.03;2.75;;;;;;;;;;1997318;28;20406;-72
2022/01/10 03:45:06;;;;;;;5.57;3.72;;;;;;;;;;1997086;28;20181;-72
2022/01/10 03:46:06;;;;;;;4.25;2.80;;;;;;;;;;1996353;28;20182;-72
2022/01/10 03:47:06;;;;;;;5.53;3.33;;;;;;;;;;1996685;28;20173;-72
2022/01/10 03:48:04;;;;;;;5.53;3.03;;;;;;;;;;1997166;28;20170;-73
2022/01/10 03:49:04;;;;;;;6.30;3.20;;;;;;;;;;1997120;28;20180;-72
2022/01/10 03:50:05;;;;;;;5.80;3.28;;;;;;;;;;1997090;28;20485;-72
2022/01/10 03:51:04;;;;;;;5.82;2.97;;;;;;;;;;1997130;28;20531;-72
2022/01/10 03:52:03;;;;;;;8.10;3.50;;;;;;;;;;1997211;28;20181;-72
2022/01/10 03:53:03;;;;;;;4.88;2.83;;;;;;;;;;1997098;28;20947;-72
2022/01/10 03:54:02;;;;;;;10.65;3.35;;;;;;;;;;1996944;28;20580;-72
2022/01/10 03:55:01;;;;;;;7.78;3.22;;;;;;;;;;1997288;28;20253;-72
2022/01/10 03:56:00;;;;;;;4.03;2.63;;;;;;;;;;1997148;28;20172;-72
2022/01/10 03:56:59;;;;;;;4.30;3.00;;;;;;;;;;1997060;28;20806;-72
2022/01/10 03:57:58;;;;;;;3.38;2.60;;;;;;;;;;1997116;28;20508;-72
2022/01/10 03:58:57;;;;;;;5.13;3.20;;;;;;;;;;1996978;28;20202;-72
2022/01/10 03:59:56;;;;;;;6.82;3.22;;;;;;;;;;1997081;28;20405;-73
2022/01/10 04:00:55;;;;;;;7.23;3.50;;;;;;;;;;1997075;28;20570;-72
2022/01/10 04:01:55;;;;;;;2.87;2.40;;;;;;;;;;1997123;28;20500;-72
2022/01/10 04:03:00;;;;;;;5.90;2.92;;;;;;;;;;1997052;28;20408;-73
2022/01/10 04:03:59;;;;;;;4.60;2.67;;;;;;;;;;1997199;28;20685;-72
2022/01/10 04:04:58;;;;;;;4.50;3.03;;;;;;;;;;1997159;28;20186;-72
2022/01/10 04:05:59;;;;;;;6.38;3.05;;;;;;;;;;1997130;28;20189;-72
2022/01/10 04:06:58;;;;;;;6.18;2.85;;;;;;;;;;1996920;28;20189;-72
2022/01/10 04:07:57;;;;;;;6.20;3.20;;;;;;;;;;1996984;28;20529;-72
2022/01/10 04:08:55;;;;;;;3.97;3.23;;;;;;;;;;1996957;28;20435;-72
2022/01/10 04:09:54;;;;;;;3.67;2.47;;;;;;;;;;1997079;28;20413;-72
2022/01/10 04:10:53;;;;;;;7.33;3.20;;;;;;;;;;1996975;28;20951;-72
2022/01/10 04:11:52;;;;;;;4.67;2.97;;;;;;;;;;1997091;28;20888;-72
2022/01/10 04:12:51;;;;;;;3.80;2.67;;;;;;;;;;1996936;28;20444;-72
2022/01/10 04:13:50;;;;;;;4.23;3.03;;;;;;;;;;1996341;28;20573;-72
2022/01/10 04:14:49;;;;;;;4.83;3.20;;;;;;;;;;1996524;28;20411;-72
2022/01/10 04:15:48;;;;;;;4.28;2.90;;;;;;;;;;1996932;28;20405;-72
2022/01/10 04:16:47;;;;;;;6.33;3.30;;;;;;;;;;1996942;28;20603;-72
2022/01/10 04:17:52;;;;;;;5.82;3.72;;;;;;;;;;1996999;28;20452;-72
2022/01/10 04:18:51;;;;;;;3.08;2.78;;;;;;;;;;1996640;28;20186;-72
2022/01/10 04:19:50;;;;;;;4.60;3.17;;;;;;;;;;1996816;28;20536;-72
2022/01/10 04:20:48;;;;;;;4.00;2.70;;;;;;;;;;1996980;28;20405;-72
2022/01/10 04:21:47;;;;;;;5.80;3.50;;;;;;;;;;1996889;28;20397;-72
2022/01/10 04:22:47;;;;;;;4.67;3.00;;;;;;;;;;1996959;28;20460;-72
2022/01/10 04:23:46;;;;;;;4.68;3.05;;;;;;;;;;1997002;28;20401;-72
2022/01/10 04:24:45;;;;;;;6.10;3.08;;;;;;;;;;1996837;28;20185;-72
2022/01/10 04:25:44;;;;;;;4.60;3.23;;;;;;;;;;1996910;28;20205;-72
2022/01/10 04:26:43;;;;;;;4.95;3.47;;;;;;;;;;1996871;28;20424;-72
2022/01/10 04:27:42;;;;;;;3.40;2.77;;;;;;;;;;1997082;28;20257;-72
2022/01/10 04:28:41;;;;;;;5.43;3.00;;;;;;;;;;1996846;28;20951;-72
2022/01/10 04:29:40;;;;;;;4.93;3.03;;;;;;;;;;1996775;28;20409;-72
2022/01/10 04:30:39;;;;;;;4.27;2.77;;;;;;;;;;1996816;28;20397;-72
2022/01/10 04:31:38;;;;;;;5.53;3.00;;;;;;;;;;1996861;28;20413;-72
2022/01/10 04:32:37;;;;;;;7.13;3.33;;;;;;;;;;1996839;28;20416;-72
2022/01/10 04:33:36;;;;;;;8.32;3.00;;;;;;;;;;1996834;28;20769;-72
2022/01/10 04:34:36;;;;;;;5.13;2.90;;;;;;;;;;1996169;28;20177;-72
2022/01/10 04:35:35;;;;;;;4.97;2.88;;;;;;;;;;1996309;28;20496;-72
2022/01/10 04:36:34;;;;;;;5.30;3.17;;;;;;;;;;1996689;28;20201;-73
2022/01/10 04:37:32;;;;;;;3.93;2.83;;;;;;;;;;1996131;28;20520;-72
2022/01/10 04:38:31;;;;;;;5.23;2.97;;;;;;;;;;1996255;28;20428;-73
2022/01/10 04:39:30;;;;;;;5.00;3.00;;;;;;;;;;1996699;28;20457;-72
2022/01/10 04:40:29;;;;;;;7.97;3.03;;;;;;;;;;1996838;28;20412;-72
2022/01/10 04:41:28;;;;;;;4.83;2.87;;;;;;;;;;1996880;28;20405;-73
2022/01/10 04:42:27;;;;;;;5.97;3.30;;;;;;;;;;1996243;28;20428;-73
2022/01/10 04:43:26;;;;;;;5.00;3.27;;;;;;;;;;1996282;28;20413;-73
2022/01/10 04:44:25;;;;;;;3.73;2.70;;;;;;;;;;1996691;28;20416;-72
2022/01/10 04:45:24;;;;;;;4.63;3.00;;;;;;;;;;1996782;28;20435;-72
2022/01/10 04:46:23;;;;;;;4.23;3.00;;;;;;;;;;1996666;28;20507;-72
2022/01/10 04:47:22;;;;;;;3.60;2.80;;;;;;;;;;1996063;28;20417;-72
2022/01/10 04:48:21;;;;;;;6.75;2.72;;;;;;;;;;1996213;28;20462;-72
2022/01/10 04:49:24;;;;;;;6.07;2.87;;;;;;;;;;1996748;28;20228;-72
2022/01/10 04:51:23;;;;;;;3.80;2.50;;;;;;;;;;1996898;28;20280;-72
2022/01/10 04:52:22;;;;;;;3.90;3.30;;;;;;;;;;1996806;28;20405;-72
2022/01/10 04:53:21;;;;;;;6.00;3.08;;;;;;;;;;1996807;28;20181;-72
2022/01/10 04:54:21;;;;;;;4.40;2.83;;;;;;;;;;1995896;28;20225;-72
2022/01/10 04:55:21;;;;;;;4.25;2.70;;;;;;;;;;1996243;28;20441;-72
2022/01/10 04:56:20;;;;;;;6.50;3.10;;;;;;;;;;1996657;28;20597;-72
2022/01/10 04:57:19;;;;;;;3.55;2.72;;;;;;;;;;1996708;28;20408;-72
2022/01/10 04:58:18;;;;;;;5.75;3.17;;;;;;;;;;1996061;28;20181;-72
2022/01/10 04:59:17;;;;;;;6.75;3.50;;;;;;;;;;1996202;28;20202;-73
2022/01/10 05:00:16;;;;;;;6.90;2.90;;;;;;;;;;1996672;28;20527;-73
2022/01/10 05:01:16;;;;;;;4.30;2.95;;;;;;;;;;1996577;28;20405;-73
2022/01/10 05:02:15;;;;;;;3.50;2.40;;;;;;;;;;2003957;28;20173;-73
2022/01/10 05:03:17;;;;;;;3.58;2.63;;;;;;;;;;2003972;28;20169;-73
2022/01/10 05:04:16;;;;;;;6.68;2.80;;;;;;;;;;1996656;28;20181;-73
2022/01/10 05:05:15;;;;;;;3.00;2.03;;;;;;;;;;1996742;28;20162;-73
2022/01/10 05:06:14;;;;;;;3.60;2.63;;;;;;;;;;1996630;28;20421;-72
2022/01/10 05:07:13;;;;;;;5.10;2.43;;;;;;;;;;1996710;28;20460;-73
2022/01/10 05:08:12;;;;;;;4.70;2.90;;;;;;;;;;1996622;28;20413;-73
2022/01/10 05:09:11;;;;;;;7.70;2.97;;;;;;;;;;1996743;28;20170;-73
2022/01/10 05:10:10;;;;;;;6.53;2.50;;;;;;;;;;1996743;28;20170;-73
2022/01/10 05:11:09;;;;;;;4.13;2.40;;;;;;;;;;1996696;28;20893;-73
2022/01/10 05:12:08;;;;;;;3.70;2.40;;;;;;;;;;1996715;28;20409;-74
2022/01/10 05:13:08;;;;;;;3.88;3.10;;;;;;;;;;1996634;28;20496;-73
2022/01/10 05:14:08;;;;;;;4.75;2.80;;;;;;;;;;1996933;28;20688;-73
2022/01/10 05:15:08;;;;;;;4.13;2.30;;;;;;;;;;1997211;28;20169;-73
2022/01/10 05:16:07;;;;;;;5.38;2.50;;;;;;;;;;1997712;28;20240;-72
2022/01/10 05:17:06;;;;;;;3.58;3.08;;;;;;;;;;1997800;28;20173;-72
2022/01/10 05:18:05;;;;;;;5.13;2.88;;;;;;;;;;1997707;28;20637;-72
2022/01/10 05:19:04;;;;;;;1.90;1.80;;;;;;;;;;1997601;28;20224;-73
2022/01/10 05:20:04;;;;;;;4.67;3.17;;;;;;;;;;1997797;28;20461;-73
2022/01/10 05:21:03;;;;;;;3.00;2.45;;;;;;;;;;1997004;28;20408;-72
2022/01/10 05:22:02;;;;;;;3.50;2.37;;;;;;;;;;1996738;28;20181;-72
2022/01/10 05:23:00;;;;;;;4.25;2.40;;;;;;;;;;1996607;28;20401;-72
2022/01/10 05:23:59;;;;;;;3.43;2.73;;;;;;;;;;1996016;28;20174;-73
2022/01/10 05:24:58;;;;;;;3.17;2.53;;;;;;;;;;1996087;28;20796;-73
2022/01/10 05:25:57;;;;;;;3.70;2.77;;;;;;;;;;1996615;28;20448;-73
2022/01/10 05:26:56;;;;;;;3.60;2.53;;;;;;;;;;1996538;28;20509;-73
2022/01/10 05:27:55;;;;;;;4.17;2.60;;;;;;;;;;1996732;28;20545;-73
2022/01/10 05:28:57;;;;;;;3.77;2.63;;;;;;;;;;1996594;28;20409;-73
2022/01/10 05:29:56;;;;;;;4.03;2.70;;;;;;;;;;1995920;28;20427;-74
2022/01/10 05:30:55;;;;;;;4.80;2.97;;;;;;;;;;1996086;28;20177;-73
2022/01/10 05:31:54;;;;;;;3.95;2.15;;;;;;;;;;1998119;28;20488;-73
2022/01/10 05:32:53;;;;;;;4.33;2.60;;;;;;;;;;1998241;28;20558;-73
2022/01/10 05:33:52;;;;;;;3.42;2.63;;;;;;;;;;1998101;28;20412;-73
2022/01/10 05:34:51;;;;;;;5.43;2.77;;;;;;;;;;1997528;28;20224;-71
2022/01/10 05:35:50;;;;;;;3.30;2.33;;;;;;;;;;1997589;28;20405;-73
2022/01/10 05:36:49;;;;;;;5.57;2.57;;;;;;;;;;1998000;28;20433;-73
2022/01/10 05:37:48;;;;;;;4.43;2.50;;;;;;;;;;1998168;28;20697;-72
2022/01/10 05:38:47;;;;;;;4.60;2.43;;;;;;;;;;1998170;28;20170;-73
2022/01/10 05:39:46;;;;;;;4.17;2.97;;;;;;;;;;1998226;28;20415;-73
2022/01/10 05:40:45;;;;;;;4.10;2.97;;;;;;;;;;1998061;28;20397;-73
2022/01/10 05:41:44;;;;;;;3.60;2.63;;;;;;;;;;1998212;28;20869;-73
2022/01/10 05:42:43;;;;;;;3.30;2.35;;;;;;;;;;1998098;28;20409;-73
2022/01/10 05:43:43;;;;;;;3.07;2.40;;;;;;;;;;1998154;28;20170;-73
2022/01/10 05:44:41;;;;;;;3.83;2.70;;;;;;;;;;1998014;28;20401;-72
2022/01/10 05:45:44;;;;;;;5.97;3.10;;;;;;;;;;1998083;28;20178;-73
2022/01/10 05:46:43;;;;;;;4.30;2.83;;;;;;;;;;1998056;28;20432;-73
2022/01/10 05:47:45;;;;;;;4.00;2.38;;;;;;;;;;1998050;28;20595;-73
2022/01/10 05:48:47;;;;;;;5.40;2.50;;;;;;;;;;1997986;28;20174;-73
2022/01/10 05:49:48;;;;;;;4.32;3.20;;;;;;;;;;1998058;28;20162;-73
2022/01/10 05:50:47;;;;;;;3.60;2.10;;;;;;;;;;1997434;28;20626;-73
2022/01/10 05:51:46;;;;;;;4.25;3.00;;;;;;;;;;1997446;28;20178;-73
2022/01/10 05:52:45;;;;;;;3.70;2.27;;;;;;;;;;1998084;28;20186;-73
2022/01/10 05:53:44;;;;;;;3.90;2.25;;;;;;;;;;1998149;28;20463;-73
2022/01/10 05:54:43;;;;;;;3.05;2.22;;;;;;;;;;1997877;28;20225;-73
2022/01/10 05:55:42;;;;;;;4.83;2.73;;;;;;;;;;1998022;28;20205;-73
2022/01/10 05:56:41;;;;;;;5.63;3.20;;;;;;;;;;1997281;28;20524;-73
2022/01/10 05:57:40;;;;;;;4.70;2.80;;;;;;;;;;1997452;28;20408;-72
2022/01/10 05:58:39;;;;;;;5.27;2.50;;;;;;;;;;1998049;28;20405;-72
2022/01/10 05:59:38;;;;;;;4.17;2.53;;;;;;;;;;1997976;28;20828;-73
2022/01/10 06:00:37;;;;;;;3.07;2.73;;;;;;;;;;1998083;28;20424;-73
2022/01/10 06:01:36;;;;;;;4.75;2.63;;;;;;;;;;1998086;28;20408;-73
2022/01/10 06:02:35;;;;;;;3.50;2.67;;;;;;;;;;1997997;28;20510;-73
2022/01/10 06:03:34;;;;;;;4.00;2.50;;;;;;;;;;1998031;28;20409;-73
2022/01/10 06:04:33;;;;;;;4.77;2.43;;;;;;;;;;1997913;28;20463;-72
2022/01/10 06:05:32;;;;;;;3.47;2.57;;;;;;;;;;1998003;28;20404;-72
2022/01/10 06:06:31;;;;;;;3.83;2.30;;;;;;;;;;1997859;28;20433;-72
2022/01/10 06:07:30;;;;;;;3.60;2.50;;;;;;;;;;1998059;28;20646;-73
2022/01/10 06:08:29;;;;;;;2.57;2.30;;;;;;;;;;1997969;28;20401;-72